sensor_id;sensor_type;location;lat;lon;timestamp;pressure;altitude;pressure_sealevel;temperature;humidity
64602;BME280;68371;42.630;23.192;2023-06-22T00:00:43;92876.78;;;16.37;89.57
64602;BME280;68371;42.630;23.192;2023-06-22T00:03:10;92871.41;;;16.34;89.16
64602;BME280;68371;42.630;23.192;2023-06-22T00:05:37;92871.78;;;16.32;88.83
64602;BME280;68371;42.630;23.192;2023-06-22T00:08:04;92859.91;;;16.22;89.15
64602;BME280;68371;42.630;23.192;2023-06-22T00:10:31;92866.03;;;16.27;88.88
64602;BME280;68371;42.630;23.192;2023-06-22T00:12:59;92857.28;;;16.22;88.38
64602;BME280;68371;42.630;23.192;2023-06-22T00:15:26;92865.56;;;16.21;87.90
64602;BME280;68371;42.630;23.192;2023-06-22T00:17:53;92852.66;;;16.19;88.15
64602;BME280;68371;42.630;23.192;2023-06-22T00:20:20;92855.31;;;16.19;88.84
64602;BME280;68371;42.630;23.192;2023-06-22T00:22:48;92855.28;;;16.16;89.19
64602;BME280;68371;42.630;23.192;2023-06-22T00:25:14;92831.28;;;16.05;89.52
64602;BME280;68371;42.630;23.192;2023-06-22T00:27:41;92829.44;;;16.09;89.61
64602;BME280;68371;42.630;23.192;2023-06-22T00:30:10;92839.63;;;16.07;89.85
64602;BME280;68371;42.630;23.192;2023-06-22T00:32:37;92833.53;;;16.03;89.25
64602;BME280;68371;42.630;23.192;2023-06-22T00:35:04;92835.72;;;15.97;89.70
64602;BME280;68371;42.630;23.192;2023-06-22T00:37:31;92842.97;;;16.00;89.12
64602;BME280;68371;42.630;23.192;2023-06-22T00:39:58;92831.91;;;15.95;89.73
64602;BME280;68371;42.630;23.192;2023-06-22T00:42:24;92837.94;;;15.92;89.62
64602;BME280;68371;42.630;23.192;2023-06-22T00:44:51;92834.41;;;15.84;89.80
64602;BME280;68371;42.630;23.192;2023-06-22T00:47:19;92843.88;;;15.85;89.15
64602;BME280;68371;42.630;23.192;2023-06-22T00:49:47;92840.81;;;15.83;89.45
64602;BME280;68371;42.630;23.192;2023-06-22T00:52:14;92834.34;;;15.80;90.20
64602;BME280;68371;42.630;23.192;2023-06-22T00:54:46;92833.47;;;15.73;89.60
64602;BME280;68371;42.630;23.192;2023-06-22T00:57:14;92831.25;;;15.75;89.54
64602;BME280;68371;42.630;23.192;2023-06-22T00:59:42;92830.00;;;15.69;89.73
64602;BME280;68371;42.630;23.192;2023-06-22T01:02:09;92829.53;;;15.63;89.33
64602;BME280;68371;42.630;23.192;2023-06-22T01:04:38;92838.59;;;15.62;90.11
64602;BME280;68371;42.630;23.192;2023-06-22T01:07:10;92849.06;;;15.55;90.55
64602;BME280;68371;42.630;23.192;2023-06-22T01:09:49;92848.25;;;15.51;92.00
64602;BME280;68371;42.630;23.192;2023-06-22T01:12:18;92843.00;;;15.54;91.12
64602;BME280;68371;42.630;23.192;2023-06-22T01:14:49;92849.47;;;15.57;91.63
64602;BME280;68371;42.630;23.192;2023-06-22T01:17:19;92850.97;;;15.54;91.29
64602;BME280;68371;42.630;23.192;2023-06-22T01:19:49;92848.25;;;15.51;91.85
64602;BME280;68371;42.630;23.192;2023-06-22T01:22:19;92847.50;;;15.50;91.36
64602;BME280;68371;42.630;23.192;2023-06-22T01:24:56;92842.53;;;15.49;91.89
64602;BME280;68371;42.630;23.192;2023-06-22T01:27:33;92845.09;;;15.41;92.20
64602;BME280;68371;42.630;23.192;2023-06-22T01:30:05;92848.50;;;15.42;92.19
64602;BME280;68371;42.630;23.192;2023-06-22T01:32:37;92855.97;;;15.36;92.54
64602;BME280;68371;42.630;23.192;2023-06-22T01:35:06;92856.38;;;15.38;92.33
64602;BME280;68371;42.630;23.192;2023-06-22T01:37:35;92848.81;;;15.37;92.16
64602;BME280;68371;42.630;23.192;2023-06-22T01:40:04;92848.03;;;15.36;92.56
64602;BME280;68371;42.630;23.192;2023-06-22T01:42:32;92849.84;;;15.32;92.24
64602;BME280;68371;42.630;23.192;2023-06-22T01:44:59;92853.69;;;15.35;92.43
64602;BME280;68371;42.630;23.192;2023-06-22T01:47:28;92852.09;;;15.30;92.68
64602;BME280;68371;42.630;23.192;2023-06-22T01:49:55;92853.97;;;15.30;91.99
64602;BME280;68371;42.630;23.192;2023-06-22T01:52:22;92857.78;;;15.32;92.56
64602;BME280;68371;42.630;23.192;2023-06-22T01:54:49;92856.91;;;15.25;92.57
64602;BME280;68371;42.630;23.192;2023-06-22T01:57:16;92859.91;;;15.23;93.16
64602;BME280;68371;42.630;23.192;2023-06-22T01:59:48;92864.44;;;15.22;92.87
64602;BME280;68371;42.630;23.192;2023-06-22T02:02:19;92864.38;;;15.19;93.02
64602;BME280;68371;42.630;23.192;2023-06-22T02:04:56;92874.06;;;15.11;92.82
64602;BME280;68371;42.630;23.192;2023-06-22T02:07:29;92886.81;;;15.06;93.55
64602;BME280;68371;42.630;23.192;2023-06-22T02:09:59;92888.41;;;15.10;93.76
64602;BME280;68371;42.630;23.192;2023-06-22T02:12:29;92882.78;;;15.12;93.64
64602;BME280;68371;42.630;23.192;2023-06-22T02:14:58;92877.06;;;15.10;93.86
64602;BME280;68371;42.630;23.192;2023-06-22T02:17:26;92873.72;;;15.13;93.74
64602;BME280;68371;42.630;23.192;2023-06-22T02:20:02;92808.78;;;14.73;93.68
64602;BME280;68371;42.630;23.192;2023-06-22T02:22:34;92849.72;;;15.02;94.01
64602;BME280;68371;42.630;23.192;2023-06-22T02:25:00;92859.31;;;15.10;94.02
64602;BME280;68371;42.630;23.192;2023-06-22T02:27:28;92862.25;;;15.05;94.02
64602;BME280;68371;42.630;23.192;2023-06-22T02:29:55;92866.38;;;15.02;94.29
64602;BME280;68371;42.630;23.192;2023-06-22T02:32:22;92865.25;;;15.03;94.13
64602;BME280;68371;42.630;23.192;2023-06-22T02:34:48;92865.25;;;15.03;94.11
64602;BME280;68371;42.630;23.192;2023-06-22T02:37:17;92870.84;;;14.98;94.52
64602;BME280;68371;42.630;23.192;2023-06-22T02:39:44;92868.53;;;14.97;94.34
64602;BME280;68371;42.630;23.192;2023-06-22T02:42:11;92865.97;;;15.00;94.23
64602;BME280;68371;42.630;23.192;2023-06-22T02:44:37;92870.03;;;14.98;94.18
64602;BME280;68371;42.630;23.192;2023-06-22T02:47:04;92868.13;;;14.95;93.91
64602;BME280;68371;42.630;23.192;2023-06-22T02:49:31;92868.47;;;14.93;93.96
64602;BME280;68371;42.630;23.192;2023-06-22T02:51:58;92870.75;;;14.95;94.37
64602;BME280;68371;42.630;23.192;2023-06-22T02:54:26;92861.59;;;14.89;94.95
64602;BME280;68371;42.630;23.192;2023-06-22T02:56:53;92874.88;;;14.92;95.28
64602;BME280;68371;42.630;23.192;2023-06-22T02:59:20;92877.03;;;14.87;95.06
64602;BME280;68371;42.630;23.192;2023-06-22T03:01:49;92864.84;;;14.82;94.99
64602;BME280;68371;42.630;23.192;2023-06-22T03:04:16;92863.09;;;14.90;95.72
64602;BME280;68371;42.630;23.192;2023-06-22T03:06:42;92865.41;;;14.91;95.09
64602;BME280;68371;42.630;23.192;2023-06-22T03:09:09;92873.59;;;14.86;95.15
64602;BME280;68371;42.630;23.192;2023-06-22T03:11:37;92880.78;;;14.86;95.67
64602;BME280;68371;42.630;23.192;2023-06-22T03:14:04;92884.19;;;14.86;96.08
64602;BME280;68371;42.630;23.192;2023-06-22T03:16:31;92877.78;;;14.87;95.81
64602;BME280;68371;42.630;23.192;2023-06-22T03:18:59;92883.09;;;14.87;95.88
64602;BME280;68371;42.630;23.192;2023-06-22T03:21:27;92892.97;;;14.90;96.21
64602;BME280;68371;42.630;23.192;2023-06-22T03:23:54;92881.97;;;14.88;96.28
64602;BME280;68371;42.630;23.192;2023-06-22T03:26:21;92881.69;;;14.93;96.15
64602;BME280;68371;42.630;23.192;2023-06-22T03:28:49;92887.72;;;14.94;96.32
64602;BME280;68371;42.630;23.192;2023-06-22T03:31:16;92892.59;;;14.92;96.80
64602;BME280;68371;42.630;23.192;2023-06-22T03:33:46;92890.75;;;14.92;96.43
64602;BME280;68371;42.630;23.192;2023-06-22T03:36:13;92897.63;;;14.97;96.64
64602;BME280;68371;42.630;23.192;2023-06-22T03:38:41;92908.22;;;14.97;97.36
64602;BME280;68371;42.630;23.192;2023-06-22T03:41:08;92902.16;;;14.77;98.65
64602;BME280;68371;42.630;23.192;2023-06-22T03:43:35;92905.28;;;14.82;99.25
64602;BME280;68371;42.630;23.192;2023-06-22T03:46:03;92903.97;;;14.92;99.31
64602;BME280;68371;42.630;23.192;2023-06-22T03:48:30;92910.84;;;14.97;99.09
64602;BME280;68371;42.630;23.192;2023-06-22T03:50:56;92910.50;;;14.98;99.84
64602;BME280;68371;42.630;23.192;2023-06-22T03:53:23;92927.63;;;15.05;99.76
64602;BME280;68371;42.630;23.192;2023-06-22T03:55:50;92923.09;;;15.05;100.00
64602;BME280;68371;42.630;23.192;2023-06-22T03:58:18;92923.84;;;15.06;100.00
64602;BME280;68371;42.630;23.192;2023-06-22T04:00:45;92901.03;;;14.97;100.00
64602;BME280;68371;42.630;23.192;2023-06-22T04:03:14;92919.47;;;15.13;100.00
64602;BME280;68371;42.630;23.192;2023-06-22T04:05:41;92915.75;;;15.18;100.00
64602;BME280;68371;42.630;23.192;2023-06-22T04:08:08;92917.34;;;15.22;100.00
64602;BME280;68371;42.630;23.192;2023-06-22T04:10:35;92905.59;;;15.20;100.00
64602;BME280;68371;42.630;23.192;2023-06-22T04:13:02;92897.66;;;15.20;100.00
64602;BME280;68371;42.630;23.192;2023-06-22T04:15:28;92895.84;;;15.24;100.00
64602;BME280;68371;42.630;23.192;2023-06-22T04:17:55;92892.09;;;15.25;100.00
64602;BME280;68371;42.630;23.192;2023-06-22T04:20:23;92888.38;;;15.30;100.00
64602;BME280;68371;42.630;23.192;2023-06-22T04:22:52;92889.91;;;15.31;100.00
64602;BME280;68371;42.630;23.192;2023-06-22T04:25:19;92886.06;;;15.28;100.00
64602;BME280;68371;42.630;23.192;2023-06-22T04:27:46;92888.50;;;15.37;100.00
64602;BME280;68371;42.630;23.192;2023-06-22T04:30:14;92884.56;;;15.50;100.00
64602;BME280;68371;42.630;23.192;2023-06-22T04:32:42;92854.25;;;15.48;100.00
64602;BME280;68371;42.630;23.192;2023-06-22T04:35:10;92874.03;;;15.54;100.00
64602;BME280;68371;42.630;23.192;2023-06-22T04:37:38;92889.50;;;15.75;100.00
64602;BME280;68371;42.630;23.192;2023-06-22T04:40:06;92895.69;;;15.82;100.00
64602;BME280;68371;42.630;23.192;2023-06-22T04:42:34;92894.69;;;15.91;100.00
64602;BME280;68371;42.630;23.192;2023-06-22T04:45:02;92902.75;;;15.98;100.00
64602;BME280;68371;42.630;23.192;2023-06-22T04:47:30;92894.88;;;16.05;100.00
64602;BME280;68371;42.630;23.192;2023-06-22T04:49:56;92899.56;;;16.15;100.00
64602;BME280;68371;42.630;23.192;2023-06-22T04:52:23;92903.84;;;16.23;100.00
64602;BME280;68371;42.630;23.192;2023-06-22T04:54:51;92908.53;;;16.34;100.00
64602;BME280;68371;42.630;23.192;2023-06-22T04:57:21;92900.22;;;16.35;100.00
64602;BME280;68371;42.630;23.192;2023-06-22T04:59:58;92905.31;;;16.48;100.00
64602;BME280;68371;42.630;23.192;2023-06-22T05:02:32;92908.81;;;16.55;100.00
64602;BME280;68371;42.630;23.192;2023-06-22T05:04:58;92910.91;;;16.69;100.00
64602;BME280;68371;42.630;23.192;2023-06-22T05:07:25;92898.50;;;16.80;100.00
64602;BME280;68371;42.630;23.192;2023-06-22T05:09:53;92905.03;;;16.87;100.00
64602;BME280;68371;42.630;23.192;2023-06-22T05:12:20;92901.78;;;17.00;100.00
64602;BME280;68371;42.630;23.192;2023-06-22T05:14:46;92903.44;;;17.12;100.00
64602;BME280;68371;42.630;23.192;2023-06-22T05:17:13;92910.00;;;17.22;100.00
64602;BME280;68371;42.630;23.192;2023-06-22T05:19:44;92902.47;;;17.31;100.00
64602;BME280;68371;42.630;23.192;2023-06-22T05:22:14;92903.28;;;17.35;100.00
64602;BME280;68371;42.630;23.192;2023-06-22T05:24:41;92904.16;;;17.47;100.00
64602;BME280;68371;42.630;23.192;2023-06-22T05:27:10;92894.81;;;17.63;98.63
64602;BME280;68371;42.630;23.192;2023-06-22T05:29:37;92896.44;;;17.75;95.77
64602;BME280;68371;42.630;23.192;2023-06-22T05:32:04;92900.69;;;17.84;93.17
64602;BME280;68371;42.630;23.192;2023-06-22T05:34:31;92902.28;;;17.92;92.53
64602;BME280;68371;42.630;23.192;2023-06-22T05:36:58;92904.66;;;18.04;93.17
64602;BME280;68371;42.630;23.192;2023-06-22T05:39:25;92902.44;;;18.13;93.32
64602;BME280;68371;42.630;23.192;2023-06-22T05:41:52;92910.47;;;18.24;91.36
64602;BME280;68371;42.630;23.192;2023-06-22T05:44:20;92917.41;;;18.36;90.17
64602;BME280;68371;42.630;23.192;2023-06-22T05:46:47;92916.75;;;18.53;86.21
64602;BME280;68371;42.630;23.192;2023-06-22T05:49:14;92914.09;;;18.60;88.30
64602;BME280;68371;42.630;23.192;2023-06-22T05:51:41;92925.16;;;18.66;88.08
64602;BME280;68371;42.630;23.192;2023-06-22T05:54:09;92925.56;;;18.75;88.17
64602;BME280;68371;42.630;23.192;2023-06-22T05:56:35;92934.44;;;18.90;88.15
64602;BME280;68371;42.630;23.192;2023-06-22T05:59:02;92935.97;;;18.98;88.42
64602;BME280;68371;42.630;23.192;2023-06-22T06:01:30;92920.03;;;19.06;87.37
64602;BME280;68371;42.630;23.192;2023-06-22T06:04:01;92923.88;;;19.19;87.53
64602;BME280;68371;42.630;23.192;2023-06-22T06:06:29;92922.00;;;19.27;87.86
64602;BME280;68371;42.630;23.192;2023-06-22T06:08:56;92922.03;;;19.41;87.41
64602;BME280;68371;42.630;23.192;2023-06-22T06:11:22;92917.84;;;19.54;87.57
64602;BME280;68371;42.630;23.192;2023-06-22T06:13:49;92918.66;;;19.66;90.53
64602;BME280;68371;42.630;23.192;2023-06-22T06:16:16;92922.50;;;19.79;90.12
64602;BME280;68371;42.630;23.192;2023-06-22T06:18:45;92922.50;;;19.90;88.79
64602;BME280;68371;42.630;23.192;2023-06-22T06:21:11;92913.00;;;19.99;85.66
64602;BME280;68371;42.630;23.192;2023-06-22T06:23:38;92906.47;;;20.11;84.32
64602;BME280;68371;42.630;23.192;2023-06-22T06:26:05;92915.25;;;20.26;84.83
64602;BME280;68371;42.630;23.192;2023-06-22T06:28:32;92914.84;;;20.42;79.31
64602;BME280;68371;42.630;23.192;2023-06-22T06:30:59;92909.47;;;20.49;78.32
64602;BME280;68371;42.630;23.192;2023-06-22T06:33:25;92911.41;;;20.52;79.83
64602;BME280;68371;42.630;23.192;2023-06-22T06:35:54;92909.47;;;20.67;82.02
64602;BME280;68371;42.630;23.192;2023-06-22T06:38:21;92905.22;;;20.88;78.81
64602;BME280;68371;42.630;23.192;2023-06-22T06:40:47;92915.47;;;20.96;83.66
64602;BME280;68371;42.630;23.192;2023-06-22T06:43:14;92905.50;;;21.08;81.94
64602;BME280;68371;42.630;23.192;2023-06-22T06:45:41;92908.53;;;21.13;79.64
64602;BME280;68371;42.630;23.192;2023-06-22T06:48:08;92903.13;;;21.24;83.94
64602;BME280;68371;42.630;23.192;2023-06-22T06:50:35;92895.81;;;21.43;81.04
64602;BME280;68371;42.630;23.192;2023-06-22T06:53:03;92887.69;;;21.57;83.56
64602;BME280;68371;42.630;23.192;2023-06-22T06:55:30;92898.00;;;21.62;82.82
64602;BME280;68371;42.630;23.192;2023-06-22T06:57:58;92894.88;;;21.71;81.87
64602;BME280;68371;42.630;23.192;2023-06-22T07:00:25;92900.91;;;21.82;82.35
64602;BME280;68371;42.630;23.192;2023-06-22T07:02:52;92893.19;;;21.88;83.33
64602;BME280;68371;42.630;23.192;2023-06-22T07:05:19;92903.03;;;22.01;82.73
64602;BME280;68371;42.630;23.192;2023-06-22T07:07:47;92891.91;;;22.10;80.27
64602;BME280;68371;42.630;23.192;2023-06-22T07:10:16;92894.84;;;22.23;81.34
64602;BME280;68371;42.630;23.192;2023-06-22T07:12:43;92904.75;;;22.26;80.55
64602;BME280;68371;42.630;23.192;2023-06-22T07:15:10;92898.59;;;22.33;81.27
64602;BME280;68371;42.630;23.192;2023-06-22T07:17:38;92905.06;;;22.35;80.02
64602;BME280;68371;42.630;23.192;2023-06-22T07:20:07;92904.56;;;22.48;79.92
64602;BME280;68371;42.630;23.192;2023-06-22T07:22:35;92896.88;;;22.53;79.85
64602;BME280;68371;42.630;23.192;2023-06-22T07:25:02;92899.03;;;22.66;81.96
64602;BME280;68371;42.630;23.192;2023-06-22T07:27:36;92901.19;;;22.78;77.69
64602;BME280;68371;42.630;23.192;2023-06-22T07:30:06;92902.94;;;22.92;81.18
64602;BME280;68371;42.630;23.192;2023-06-22T07:32:33;92896.00;;;22.98;79.87
64602;BME280;68371;42.630;23.192;2023-06-22T07:34:59;92893.59;;;23.07;78.56
64602;BME280;68371;42.630;23.192;2023-06-22T07:37:27;92907.94;;;23.24;78.27
64602;BME280;68371;42.630;23.192;2023-06-22T07:39:54;92909.06;;;23.27;74.91
64602;BME280;68371;42.630;23.192;2023-06-22T07:42:24;92901.72;;;23.31;69.94
64602;BME280;68371;42.630;23.192;2023-06-22T07:44:52;92909.88;;;23.51;73.24
64602;BME280;68371;42.630;23.192;2023-06-22T07:47:19;92913.13;;;23.66;75.85
64602;BME280;68371;42.630;23.192;2023-06-22T07:49:50;92911.09;;;23.77;75.30
64602;BME280;68371;42.630;23.192;2023-06-22T07:52:17;92913.56;;;23.91;73.49
64602;BME280;68371;42.630;23.192;2023-06-22T07:54:43;92913.38;;;24.02;74.61
64602;BME280;68371;42.630;23.192;2023-06-22T07:57:10;92915.66;;;24.04;72.54
64602;BME280;68371;42.630;23.192;2023-06-22T07:59:37;92894.03;;;23.91;71.05
64602;BME280;68371;42.630;23.192;2023-06-22T08:02:05;92914.13;;;24.03;72.82
64602;BME280;68371;42.630;23.192;2023-06-22T08:04:34;92898.91;;;23.96;74.74
64602;BME280;68371;42.630;23.192;2023-06-22T08:07:01;92904.19;;;24.03;71.60
64602;BME280;68371;42.630;23.192;2023-06-22T08:09:30;92903.00;;;24.04;71.04
64602;BME280;68371;42.630;23.192;2023-06-22T08:11:57;92901.88;;;24.02;72.14
64602;BME280;68371;42.630;23.192;2023-06-22T08:14:25;92900.34;;;24.00;73.46
64602;BME280;68371;42.630;23.192;2023-06-22T08:16:52;92903.88;;;23.97;72.50
64602;BME280;68371;42.630;23.192;2023-06-22T08:19:22;92903.81;;;24.01;73.78
64602;BME280;68371;42.630;23.192;2023-06-22T08:21:49;92898.91;;;23.96;75.06
64602;BME280;68371;42.630;23.192;2023-06-22T08:24:16;92894.81;;;23.88;74.92
64602;BME280;68371;42.630;23.192;2023-06-22T08:26:43;92895.06;;;23.97;76.41
64602;BME280;68371;42.630;23.192;2023-06-22T08:29:10;92896.88;;;24.04;76.69
64602;BME280;68371;42.630;23.192;2023-06-22T08:31:36;92895.66;;;24.08;73.68
64602;BME280;68371;42.630;23.192;2023-06-22T08:34:03;92893.16;;;24.21;75.23
64602;BME280;68371;42.630;23.192;2023-06-22T08:36:31;92884.97;;;24.28;74.71
64602;BME280;68371;42.630;23.192;2023-06-22T08:39:00;92894.00;;;24.38;75.36
64602;BME280;68371;42.630;23.192;2023-06-22T08:41:28;92897.72;;;24.44;72.44
64602;BME280;68371;42.630;23.192;2023-06-22T08:43:54;92893.44;;;24.50;69.83
64602;BME280;68371;42.630;23.192;2023-06-22T08:46:22;92889.34;;;24.66;70.73
64602;BME280;68371;42.630;23.192;2023-06-22T08:48:55;92897.31;;;24.69;68.34
64602;BME280;68371;42.630;23.192;2023-06-22T08:51:23;92891.47;;;24.74;67.02
64602;BME280;68371;42.630;23.192;2023-06-22T08:53:51;92885.94;;;24.82;64.50
64602;BME280;68371;42.630;23.192;2023-06-22T08:56:18;92888.09;;;24.90;63.25
64602;BME280;68371;42.630;23.192;2023-06-22T08:58:45;92886.09;;;24.94;64.42
64602;BME280;68371;42.630;23.192;2023-06-22T09:01:11;92880.16;;;25.03;63.21
64602;BME280;68371;42.630;23.192;2023-06-22T09:03:40;92876.56;;;25.10;62.81
64602;BME280;68371;42.630;23.192;2023-06-22T09:06:10;92868.00;;;25.15;66.63
64602;BME280;68371;42.630;23.192;2023-06-22T09:08:37;92870.03;;;25.11;65.50
64602;BME280;68371;42.630;23.192;2023-06-22T09:11:05;92879.03;;;25.21;65.58
64602;BME280;68371;42.630;23.192;2023-06-22T09:13:32;92873.53;;;25.28;63.66
64602;BME280;68371;42.630;23.192;2023-06-22T09:16:00;92876.41;;;25.37;63.06
64602;BME280;68371;42.630;23.192;2023-06-22T09:18:26;92877.72;;;25.49;64.51
64602;BME280;68371;42.630;23.192;2023-06-22T09:20:54;92862.38;;;25.46;66.77
64602;BME280;68371;42.630;23.192;2023-06-22T09:23:21;92880.91;;;25.60;61.20
64602;BME280;68371;42.630;23.192;2023-06-22T09:25:48;92881.31;;;25.58;60.45
64602;BME280;68371;42.630;23.192;2023-06-22T09:28:16;92858.69;;;25.39;63.11
64602;BME280;68371;42.630;23.192;2023-06-22T09:30:43;92888.16;;;25.79;62.16
64602;BME280;68371;42.630;23.192;2023-06-22T09:33:10;92894.06;;;25.91;62.55
64602;BME280;68371;42.630;23.192;2023-06-22T09:35:37;92888.84;;;26.00;62.82
64602;BME280;68371;42.630;23.192;2023-06-22T09:38:04;92893.31;;;26.07;66.99
64602;BME280;68371;42.630;23.192;2023-06-22T09:40:30;92893.63;;;26.25;65.01
64602;BME280;68371;42.630;23.192;2023-06-22T09:43:00;92895.91;;;26.27;60.37
64602;BME280;68371;42.630;23.192;2023-06-22T09:45:28;92889.50;;;26.37;59.10
64602;BME280;68371;42.630;23.192;2023-06-22T09:47:56;92889.75;;;26.43;58.29
64602;BME280;68371;42.630;23.192;2023-06-22T09:50:22;92884.53;;;26.35;58.50
64602;BME280;68371;42.630;23.192;2023-06-22T09:52:49;92888.47;;;26.47;58.83
64602;BME280;68371;42.630;23.192;2023-06-22T09:55:20;92894.84;;;26.53;57.06
64602;BME280;68371;42.630;23.192;2023-06-22T09:57:46;92888.13;;;26.62;55.54
64602;BME280;68371;42.630;23.192;2023-06-22T10:00:15;92890.22;;;26.70;55.52
64602;BME280;68371;42.630;23.192;2023-06-22T10:02:43;92884.34;;;26.59;54.36
64602;BME280;68371;42.630;23.192;2023-06-22T10:05:10;92879.72;;;26.60;54.18
64602;BME280;68371;42.630;23.192;2023-06-22T10:07:37;92877.84;;;26.73;57.58
64602;BME280;68371;42.630;23.192;2023-06-22T10:10:08;92886.81;;;26.83;55.51
64602;BME280;68371;42.630;23.192;2023-06-22T10:12:34;92885.53;;;26.87;52.80
64602;BME280;68371;42.630;23.192;2023-06-22T10:15:01;92874.34;;;27.02;54.56
64602;BME280;68371;42.630;23.192;2023-06-22T10:17:28;92889.47;;;27.12;52.17
64602;BME280;68371;42.630;23.192;2023-06-22T10:19:56;92883.38;;;27.24;50.06
64602;BME280;68371;42.630;23.192;2023-06-22T10:22:23;92872.50;;;27.28;53.65
64602;BME280;68371;42.630;23.192;2023-06-22T10:24:49;92870.34;;;27.35;57.64
64602;BME280;68371;42.630;23.192;2023-06-22T10:27:16;92874.34;;;27.44;51.65
64602;BME280;68371;42.630;23.192;2023-06-22T10:29:43;92876.38;;;27.52;54.17
64602;BME280;68371;42.630;23.192;2023-06-22T10:32:10;92873.25;;;27.54;48.97
64602;BME280;68371;42.630;23.192;2023-06-22T10:34:37;92870.88;;;27.56;50.62
64602;BME280;68371;42.630;23.192;2023-06-22T10:37:05;92871.97;;;27.58;49.84
64602;BME280;68371;42.630;23.192;2023-06-22T10:39:32;92871.53;;;27.73;52.12
64602;BME280;68371;42.630;23.192;2023-06-22T10:41:59;92874.31;;;27.69;49.93
64602;BME280;68371;42.630;23.192;2023-06-22T10:44:25;92868.94;;;27.69;47.82
64602;BME280;68371;42.630;23.192;2023-06-22T10:46:52;92868.81;;;27.86;51.77
64602;BME280;68371;42.630;23.192;2023-06-22T10:49:19;92861.06;;;28.01;55.94
64602;BME280;68371;42.630;23.192;2023-06-22T10:51:45;92861.22;;;28.19;49.79
64602;BME280;68371;42.630;23.192;2023-06-22T10:54:13;92862.63;;;28.24;49.33
64602;BME280;68371;42.630;23.192;2023-06-22T10:56:43;92861.13;;;28.23;47.11
64602;BME280;68371;42.630;23.192;2023-06-22T10:59:10;92863.66;;;28.39;47.32
64602;BME280;68371;42.630;23.192;2023-06-22T11:01:39;92861.38;;;28.50;45.43
64602;BME280;68371;42.630;23.192;2023-06-22T11:04:06;92856.28;;;28.52;44.09
64602;BME280;68371;42.630;23.192;2023-06-22T11:06:33;92858.94;;;28.65;46.61
64602;BME280;68371;42.630;23.192;2023-06-22T11:09:00;92854.34;;;28.75;48.80
64602;BME280;68371;42.630;23.192;2023-06-22T11:11:30;92857.81;;;28.98;47.11
64602;BME280;68371;42.630;23.192;2023-06-22T11:13:57;92858.31;;;29.05;46.20
64602;BME280;68371;42.630;23.192;2023-06-22T11:16:24;92855.03;;;29.10;43.90
64602;BME280;68371;42.630;23.192;2023-06-22T11:18:50;92853.41;;;29.13;44.24
64602;BME280;68371;42.630;23.192;2023-06-22T11:21:17;92856.84;;;29.35;43.81
64602;BME280;68371;42.630;23.192;2023-06-22T11:23:44;92845.22;;;29.57;42.69
64602;BME280;68371;42.630;23.192;2023-06-22T11:26:11;92850.09;;;29.71;43.17
64602;BME280;68371;42.630;23.192;2023-06-22T11:28:39;92838.88;;;29.91;44.83
64602;BME280;68371;42.630;23.192;2023-06-22T11:31:06;92851.84;;;30.15;43.47
64602;BME280;68371;42.630;23.192;2023-06-22T11:33:33;92839.25;;;30.21;43.68
64602;BME280;68371;42.630;23.192;2023-06-22T11:36:00;92842.59;;;30.34;40.82
64602;BME280;68371;42.630;23.192;2023-06-22T11:38:27;92829.34;;;30.46;40.48
64602;BME280;68371;42.630;23.192;2023-06-22T11:40:54;92837.59;;;30.51;40.59
64602;BME280;68371;42.630;23.192;2023-06-22T11:43:21;92838.38;;;30.61;41.76
64602;BME280;68371;42.630;23.192;2023-06-22T11:45:49;92838.81;;;30.78;39.35
64602;BME280;68371;42.630;23.192;2023-06-22T11:48:16;92836.13;;;30.97;40.72
64602;BME280;68371;42.630;23.192;2023-06-22T11:50:43;92831.88;;;31.05;39.26
64602;BME280;68371;42.630;23.192;2023-06-22T11:53:09;92822.22;;;31.13;39.29
64602;BME280;68371;42.630;23.192;2023-06-22T11:55:36;92820.16;;;31.41;41.38
64602;BME280;68371;42.630;23.192;2023-06-22T11:58:06;92819.97;;;31.54;36.84
64602;BME280;68371;42.630;23.192;2023-06-22T12:00:33;92808.41;;;31.78;38.71
64602;BME280;68371;42.630;23.192;2023-06-22T12:03:01;92814.94;;;31.95;43.39
64602;BME280;68371;42.630;23.192;2023-06-22T12:05:29;92817.81;;;32.25;40.44
64602;BME280;68371;42.630;23.192;2023-06-22T12:07:55;92819.06;;;32.63;40.15
64602;BME280;68371;42.630;23.192;2023-06-22T12:10:23;92839.34;;;32.52;36.53
64602;BME280;68371;42.630;23.192;2023-06-22T12:12:50;92837.56;;;32.25;36.60
64602;BME280;68371;42.630;23.192;2023-06-22T12:15:17;92841.16;;;32.07;37.31
64602;BME280;68371;42.630;23.192;2023-06-22T12:17:44;92861.41;;;31.64;38.56
64602;BME280;68371;42.630;23.192;2023-06-22T12:20:12;92871.94;;;31.10;38.60
64602;BME280;68371;42.630;23.192;2023-06-22T12:22:39;92883.72;;;30.98;40.69
64602;BME280;68371;42.630;23.192;2023-06-22T12:25:07;92879.34;;;30.72;41.76
64602;BME280;68371;42.630;23.192;2023-06-22T12:27:34;92873.28;;;30.41;44.18
64602;BME280;68371;42.630;23.192;2023-06-22T12:30:01;92878.50;;;29.67;46.33
64602;BME280;68371;42.630;23.192;2023-06-22T12:32:28;92889.69;;;29.47;48.73
64602;BME280;68371;42.630;23.192;2023-06-22T12:34:55;92899.25;;;29.39;51.04
64602;BME280;68371;42.630;23.192;2023-06-22T12:37:23;92905.56;;;29.13;55.61
64602;BME280;68371;42.630;23.192;2023-06-22T12:39:50;92916.59;;;28.84;57.46
64602;BME280;68371;42.630;23.192;2023-06-22T12:42:17;92917.13;;;28.44;57.24
64602;BME280;68371;42.630;23.192;2023-06-22T12:44:44;92890.19;;;27.54;59.87
64602;BME280;68371;42.630;23.192;2023-06-22T12:47:10;92902.25;;;27.37;61.79
64602;BME280;68371;42.630;23.192;2023-06-22T12:49:38;92896.81;;;26.82;66.02